Pucha Pucha, Argentina
Current Conditions -  °F | °C
As of 10:00 PM on Friday 28 Nov 2014 (Local Time) from SCAT Reporting Station
NA  
Wind Chill: 57°   Ceiling: NA
Heat Index: 57°   Visibility: 5mi
Dew Point: 52°   Wind: 9mph
Humidity: 82%   Direction: 220°SW
Pressure: 29.94"   Gusts: NA
Location:  28.34°S, 69.22°W
Report Text: SCAT 290100Z AUTO 22008KT 8000 // ///015 14/11 Q1014
Loading
Personal Weather Stations






























Interactive Weather Map New forecast layout! Learn more

10-Day Weather Forecast

Advertisements
Track Severe Weather on mobile